sensor_id;sensor_type;location;lat;lon;timestamp;pressure;altitude;pressure_sealevel;temperature;humidity
21760;BME280;11041;50.854;20.580;2024-01-11T00:00:14;99791.97;;;-10.35;91.08
21760;BME280;11041;50.854;20.580;2024-01-11T00:03:01;99797.28;;;-10.35;90.52
21760;BME280;11041;50.854;20.580;2024-01-11T00:05:28;99796.31;;;-10.34;90.48
21760;BME280;11041;50.854;20.580;2024-01-11T00:07:55;99795.75;;;-10.37;89.32
21760;BME280;11041;50.854;20.580;2024-01-11T00:10:22;99801.41;;;-10.40;88.49
21760;BME280;11041;50.854;20.580;2024-01-11T00:12:49;99803.38;;;-10.42;88.82
21760;BME280;11041;50.854;20.580;2024-01-11T00:15:15;99792.88;;;-10.44;89.12
21760;BME280;11041;50.854;20.580;2024-01-11T00:17:42;99802.53;;;-10.43;89.09
21760;BME280;11041;50.854;20.580;2024-01-11T00:20:11;99798.50;;;-10.47;88.86
21760;BME280;11041;50.854;20.580;2024-01-11T00:22:38;99794.66;;;-10.53;88.99
21760;BME280;11041;50.854;20.580;2024-01-11T00:25:05;99794.28;;;-10.58;89.32
21760;BME280;11041;50.854;20.580;2024-01-11T00:27:34;99798.09;;;-10.60;89.17
21760;BME280;11041;50.854;20.580;2024-01-11T00:30:01;99789.56;;;-10.64;88.48
21760;BME280;11041;50.854;20.580;2024-01-11T00:32:28;99784.91;;;-10.70;88.21
21760;BME280;11041;50.854;20.580;2024-01-11T00:34:58;99785.03;;;-10.72;88.62
21760;BME280;11041;50.854;20.580;2024-01-11T00:37:24;99778.75;;;-10.88;89.50
21760;BME280;11041;50.854;20.580;2024-01-11T00:39:52;99772.97;;;-11.02;90.21
21760;BME280;11041;50.854;20.580;2024-01-11T00:42:21;99767.00;;;-11.04;90.73
21760;BME280;11041;50.854;20.580;2024-01-11T00:44:48;99766.00;;;-11.03;90.52
21760;BME280;11041;50.854;20.580;2024-01-11T00:47:16;99765.78;;;-11.09;90.51
21760;BME280;11041;50.854;20.580;2024-01-11T00:49:43;99749.69;;;-11.08;90.37
21760;BME280;11041;50.854;20.580;2024-01-11T00:52:10;99753.31;;;-11.09;90.00
21760;BME280;11041;50.854;20.580;2024-01-11T00:54:40;99753.50;;;-11.10;90.33
21760;BME280;11041;50.854;20.580;2024-01-11T00:57:08;99739.41;;;-11.11;90.05
21760;BME280;11041;50.854;20.580;2024-01-11T00:59:34;99737.47;;;-11.19;89.42
21760;BME280;11041;50.854;20.580;2024-01-11T01:02:05;99740.06;;;-11.27;89.68
21760;BME280;11041;50.854;20.580;2024-01-11T01:04:32;99731.41;;;-11.29;89.78
21760;BME280;11041;50.854;20.580;2024-01-11T01:06:59;99738.25;;;-11.26;90.01
21760;BME280;11041;50.854;20.580;2024-01-11T01:09:25;99734.06;;;-11.29;89.58
21760;BME280;11041;50.854;20.580;2024-01-11T01:11:53;99720.66;;;-11.27;89.88
21760;BME280;11041;50.854;20.580;2024-01-11T01:14:21;99724.22;;;-11.37;89.36
21760;BME280;11041;50.854;20.580;2024-01-11T01:16:48;99724.28;;;-11.46;89.70
21760;BME280;11041;50.854;20.580;2024-01-11T01:19:15;99731.56;;;-11.48;90.29
21760;BME280;11041;50.854;20.580;2024-01-11T01:21:41;99726.09;;;-11.47;90.49
21760;BME280;11041;50.854;20.580;2024-01-11T01:24:09;99717.84;;;-11.44;90.49
21760;BME280;11041;50.854;20.580;2024-01-11T01:26:37;99732.38;;;-11.48;89.88
21760;BME280;11041;50.854;20.580;2024-01-11T01:29:04;99731.56;;;-11.48;89.24
21760;BME280;11041;50.854;20.580;2024-01-11T01:31:32;99736.72;;;-11.47;89.03
21760;BME280;11041;50.854;20.580;2024-01-11T01:34:04;99739.06;;;-11.44;89.33
21760;BME280;11041;50.854;20.580;2024-01-11T01:36:31;99747.72;;;-11.42;89.71
21760;BME280;11041;50.854;20.580;2024-01-11T01:38:58;99736.78;;;-11.39;89.80
21760;BME280;11041;50.854;20.580;2024-01-11T01:41:25;99726.88;;;-11.37;90.05
21760;BME280;11041;50.854;20.580;2024-01-11T01:43:54;99745.97;;;-11.33;90.26
21760;BME280;11041;50.854;20.580;2024-01-11T01:46:25;99740.81;;;-11.34;90.72
21760;BME280;11041;50.854;20.580;2024-01-11T01:48:56;99741.50;;;-11.32;90.66
21760;BME280;11041;50.854;20.580;2024-01-11T01:51:26;99733.94;;;-11.27;90.86
21760;BME280;11041;50.854;20.580;2024-01-11T01:53:56;99729.16;;;-11.24;91.33
21760;BME280;11041;50.854;20.580;2024-01-11T01:56:24;99728.69;;;-11.19;91.07
21760;BME280;11041;50.854;20.580;2024-01-11T01:58:53;99718.75;;;-11.17;90.45
21760;BME280;11041;50.854;20.580;2024-01-11T02:01:23;99709.81;;;-11.16;90.84
21760;BME280;11041;50.854;20.580;2024-01-11T02:03:52;99701.47;;;-11.21;89.40
21760;BME280;11041;50.854;20.580;2024-01-11T02:06:23;99700.41;;;-11.28;89.21
21760;BME280;11041;50.854;20.580;2024-01-11T02:08:53;99700.28;;;-11.27;89.84
21760;BME280;11041;50.854;20.580;2024-01-11T02:11:21;99703.59;;;-11.25;89.92
21760;BME280;11041;50.854;20.580;2024-01-11T02:13:54;99700.50;;;-11.20;90.28
21760;BME280;11041;50.854;20.580;2024-01-11T02:16:22;99695.03;;;-11.19;89.61
21760;BME280;11041;50.854;20.580;2024-01-11T02:18:50;99688.88;;;-11.19;89.61
21760;BME280;11041;50.854;20.580;2024-01-11T02:21:17;99683.28;;;-11.16;89.64
21760;BME280;11041;50.854;20.580;2024-01-11T02:24:04;99672.97;;;-11.19;89.47
21760;BME280;11041;50.854;20.580;2024-01-11T02:26:34;99692.22;;;-11.17;89.37
21760;BME280;11041;50.854;20.580;2024-01-11T02:29:00;99677.13;;;-11.17;89.23
21760;BME280;11041;50.854;20.580;2024-01-11T02:31:29;99680.47;;;-11.15;89.60
21760;BME280;11041;50.854;20.580;2024-01-11T02:33:56;99674.34;;;-11.15;89.07
21760;BME280;11041;50.854;20.580;2024-01-11T02:36:25;99674.34;;;-11.15;89.03
21760;BME280;11041;50.854;20.580;2024-01-11T02:38:53;99665.31;;;-11.22;88.91
21760;BME280;11041;50.854;20.580;2024-01-11T02:41:22;99649.31;;;-11.30;88.74
21760;BME280;11041;50.854;20.580;2024-01-11T02:43:52;99647.66;;;-11.31;89.05
21760;BME280;11041;50.854;20.580;2024-01-11T02:46:21;99649.31;;;-11.30;89.96
21760;BME280;11041;50.854;20.580;2024-01-11T02:48:50;99642.91;;;-11.28;89.70
21760;BME280;11041;50.854;20.580;2024-01-11T02:51:18;99640.53;;;-11.31;89.20
21760;BME280;11041;50.854;20.580;2024-01-11T02:53:45;99652.28;;;-11.33;89.12
21760;BME280;11041;50.854;20.580;2024-01-11T02:56:12;99642.34;;;-11.31;88.96
21760;BME280;11041;50.854;20.580;2024-01-11T02:58:39;99640.97;;;-11.36;88.49
21760;BME280;11041;50.854;20.580;2024-01-11T03:01:07;99642.38;;;-11.49;89.18
21760;BME280;11041;50.854;20.580;2024-01-11T03:03:33;99639.19;;;-11.53;89.53
21760;BME280;11041;50.854;20.580;2024-01-11T03:06:00;99657.59;;;-11.51;89.78
21760;BME280;11041;50.854;20.580;2024-01-11T03:08:27;99658.13;;;-11.48;90.00
21760;BME280;11041;50.854;20.580;2024-01-11T03:10:55;99679.72;;;-11.43;90.51
21760;BME280;11041;50.854;20.580;2024-01-11T03:13:22;99669.47;;;-11.38;90.21
21760;BME280;11041;50.854;20.580;2024-01-11T03:15:49;99665.41;;;-11.32;90.24
21760;BME280;11041;50.854;20.580;2024-01-11T03:18:16;99663.25;;;-11.28;89.92
21760;BME280;11041;50.854;20.580;2024-01-11T03:20:45;99664.78;;;-11.26;90.17
21760;BME280;11041;50.854;20.580;2024-01-11T03:23:13;99650.38;;;-11.23;90.18
21760;BME280;11041;50.854;20.580;2024-01-11T03:25:45;99646.44;;;-11.19;90.26
21760;BME280;11041;50.854;20.580;2024-01-11T03:28:14;99642.31;;;-11.13;90.35
21760;BME280;11041;50.854;20.580;2024-01-11T03:30:42;99642.56;;;-11.07;89.79
21760;BME280;11041;50.854;20.580;2024-01-11T03:33:10;99636.19;;;-11.14;88.53
21760;BME280;11041;50.854;20.580;2024-01-11T03:35:40;99641.34;;;-11.12;89.54
21760;BME280;11041;50.854;20.580;2024-01-11T03:38:10;99628.59;;;-11.09;89.68
21760;BME280;11041;50.854;20.580;2024-01-11T03:40:40;99615.66;;;-11.12;89.62
21760;BME280;11041;50.854;20.580;2024-01-11T03:43:09;99622.78;;;-11.12;89.78
21760;BME280;11041;50.854;20.580;2024-01-11T03:45:38;99628.09;;;-11.12;90.31
21760;BME280;11041;50.854;20.580;2024-01-11T03:48:09;99613.53;;;-11.08;90.85
21760;BME280;11041;50.854;20.580;2024-01-11T03:50:42;99607.13;;;-10.98;91.76
21760;BME280;11041;50.854;20.580;2024-01-11T03:53:09;99615.44;;;-10.93;91.05
21760;BME280;11041;50.854;20.580;2024-01-11T03:55:41;99610.84;;;-10.82;91.45
21760;BME280;11041;50.854;20.580;2024-01-11T03:58:12;99597.66;;;-10.74;91.35
21760;BME280;11041;50.854;20.580;2024-01-11T04:00:43;99593.63;;;-10.78;90.34
21760;BME280;11041;50.854;20.580;2024-01-11T04:03:14;99580.88;;;-10.75;90.43
21760;BME280;11041;50.854;20.580;2024-01-11T04:05:41;99582.88;;;-10.77;89.87
21760;BME280;11041;50.854;20.580;2024-01-11T04:08:09;99580.31;;;-10.86;89.67
21760;BME280;11041;50.854;20.580;2024-01-11T04:10:38;99583.81;;;-10.86;90.30
21760;BME280;11041;50.854;20.580;2024-01-11T04:13:06;99578.50;;;-10.86;90.24
21760;BME280;11041;50.854;20.580;2024-01-11T04:15:38;99593.88;;;-10.89;89.62
21760;BME280;11041;50.854;20.580;2024-01-11T04:18:07;99586.41;;;-10.94;89.42
21760;BME280;11041;50.854;20.580;2024-01-11T04:20:40;99575.13;;;-10.96;89.69
21760;BME280;11041;50.854;20.580;2024-01-11T04:23:09;99566.47;;;-10.98;89.70
21760;BME280;11041;50.854;20.580;2024-01-11T04:25:39;99572.47;;;-10.96;90.30
21760;BME280;11041;50.854;20.580;2024-01-11T04:28:06;99562.69;;;-10.96;89.60
21760;BME280;11041;50.854;20.580;2024-01-11T04:30:36;99552.75;;;-10.94;89.80
21760;BME280;11041;50.854;20.580;2024-01-11T04:33:04;99537.78;;;-10.95;89.77
21760;BME280;11041;50.854;20.580;2024-01-11T04:35:35;99528.84;;;-10.94;89.67
21760;BME280;11041;50.854;20.580;2024-01-11T04:38:04;99523.19;;;-10.99;89.70
21760;BME280;11041;50.854;20.580;2024-01-11T04:40:36;99526.50;;;-10.97;89.33
21760;BME280;11041;50.854;20.580;2024-01-11T04:43:07;99531.16;;;-10.99;89.17
21760;BME280;11041;50.854;20.580;2024-01-11T04:45:37;99523.47;;;-11.02;88.68
21760;BME280;11041;50.854;20.580;2024-01-11T04:48:05;99529.78;;;-11.03;88.93
21760;BME280;11041;50.854;20.580;2024-01-11T04:50:36;99528.63;;;-11.00;89.38
21760;BME280;11041;50.854;20.580;2024-01-11T04:53:04;99531.16;;;-10.99;89.17
21760;BME280;11041;50.854;20.580;2024-01-11T04:55:33;99540.63;;;-10.96;88.84
21760;BME280;11041;50.854;20.580;2024-01-11T04:58:05;99533.16;;;-10.93;88.96
21760;BME280;11041;50.854;20.580;2024-01-11T05:00:34;99526.00;;;-10.92;88.78
21760;BME280;11041;50.854;20.580;2024-01-11T05:03:03;99528.19;;;-10.87;88.76
21760;BME280;11041;50.854;20.580;2024-01-11T05:05:34;99537.66;;;-10.85;89.01
21760;BME280;11041;50.854;20.580;2024-01-11T05:08:07;99534.53;;;-10.80;88.93
21760;BME280;11041;50.854;20.580;2024-01-11T05:10:38;99525.44;;;-10.78;89.25
21760;BME280;11041;50.854;20.580;2024-01-11T05:13:06;99509.03;;;-10.73;89.29
21760;BME280;11041;50.854;20.580;2024-01-11T05:15:36;99510.22;;;-10.67;88.97
21760;BME280;11041;50.854;20.580;2024-01-11T05:18:10;99495.78;;;-10.65;89.07
21760;BME280;11041;50.854;20.580;2024-01-11T05:20:41;99502.13;;;-10.58;89.05
21760;BME280;11041;50.854;20.580;2024-01-11T05:23:10;99496.81;;;-10.58;88.62
21760;BME280;11041;50.854;20.580;2024-01-11T05:25:42;99492.31;;;-10.57;88.73
21760;BME280;11041;50.854;20.580;2024-01-11T05:28:11;99479.19;;;-10.59;88.33
21760;BME280;11041;50.854;20.580;2024-01-11T05:30:39;99462.78;;;-10.62;88.49
21760;BME280;11041;50.854;20.580;2024-01-11T05:33:08;99453.97;;;-10.63;88.17
21760;BME280;11041;50.854;20.580;2024-01-11T05:35:39;99434.72;;;-10.65;88.19
21760;BME280;11041;50.854;20.580;2024-01-11T05:38:11;99440.84;;;-10.64;88.34
21760;BME280;11041;50.854;20.580;2024-01-11T05:40:40;99438.19;;;-10.64;88.26
21760;BME280;11041;50.854;20.580;2024-01-11T05:43:14;99427.56;;;-10.64;87.99
21760;BME280;11041;50.854;20.580;2024-01-11T05:45:42;99442.34;;;-10.70;87.46
21760;BME280;11041;50.854;20.580;2024-01-11T05:48:11;99447.28;;;-10.75;86.94
21760;BME280;11041;50.854;20.580;2024-01-11T05:50:41;99456.38;;;-10.78;87.39
21760;BME280;11041;50.854;20.580;2024-01-11T05:53:10;99444.94;;;-10.78;87.29
21760;BME280;11041;50.854;20.580;2024-01-11T05:55:41;99450.94;;;-10.76;87.67
21760;BME280;11041;50.854;20.580;2024-01-11T05:58:14;99443.66;;;-10.74;88.04
21760;BME280;11041;50.854;20.580;2024-01-11T06:00:41;99443.34;;;-10.63;88.85
21760;BME280;11041;50.854;20.580;2024-01-11T06:03:12;99441.03;;;-10.49;89.35
21760;BME280;11041;50.854;20.580;2024-01-11T06:05:39;99431.09;;;-10.39;89.63
21760;BME280;11041;50.854;20.580;2024-01-11T06:08:08;99432.25;;;-10.25;90.21
21760;BME280;11041;50.854;20.580;2024-01-11T06:10:40;99425.94;;;-10.08;90.90
21760;BME280;11041;50.854;20.580;2024-01-11T06:13:09;99421.63;;;-9.93;90.89
21760;BME280;11041;50.854;20.580;2024-01-11T06:15:36;99420.78;;;-9.77;90.97
21760;BME280;11041;50.854;20.580;2024-01-11T06:18:04;99429.09;;;-9.63;90.97
21760;BME280;11041;50.854;20.580;2024-01-11T06:20:31;99424.91;;;-9.50;90.67
21760;BME280;11041;50.854;20.580;2024-01-11T06:22:59;99417.06;;;-9.35;91.04
21760;BME280;11041;50.854;20.580;2024-01-11T06:25:26;99423.66;;;-9.23;90.92
21760;BME280;11041;50.854;20.580;2024-01-11T06:27:56;99416.81;;;-9.17;90.36
21760;BME280;11041;50.854;20.580;2024-01-11T06:30:23;99420.28;;;-9.08;90.37
21760;BME280;11041;50.854;20.580;2024-01-11T06:32:54;99417.44;;;-8.98;90.44
21760;BME280;11041;50.854;20.580;2024-01-11T06:35:22;99404.72;;;-8.88;90.12
21760;BME280;11041;50.854;20.580;2024-01-11T06:37:50;99408.88;;;-8.86;85.98
21760;BME280;11041;50.854;20.580;2024-01-11T06:40:20;99405.81;;;-8.74;87.20
21760;BME280;11041;50.854;20.580;2024-01-11T06:42:46;99410.56;;;-8.62;87.97
21760;BME280;11041;50.854;20.580;2024-01-11T06:45:15;99399.34;;;-8.49;88.18
21760;BME280;11041;50.854;20.580;2024-01-11T06:47:49;99413.91;;;-8.37;88.66
21760;BME280;11041;50.854;20.580;2024-01-11T06:50:20;99403.47;;;-8.23;88.76
21760;BME280;11041;50.854;20.580;2024-01-11T06:52:50;99395.72;;;-8.10;88.86
21760;BME280;11041;50.854;20.580;2024-01-11T06:55:17;99404.66;;;-8.03;87.78
21760;BME280;11041;50.854;20.580;2024-01-11T06:57:52;99410.06;;;-7.96;86.64
21760;BME280;11041;50.854;20.580;2024-01-11T07:00:24;99406.53;;;-7.88;87.72
21760;BME280;11041;50.854;20.580;2024-01-11T07:02:55;99399.09;;;-7.78;88.07
21760;BME280;11041;50.854;20.580;2024-01-11T07:05:25;99408.50;;;-7.67;88.05
21760;BME280;11041;50.854;20.580;2024-01-11T07:07:54;99396.56;;;-7.57;87.06
21760;BME280;11041;50.854;20.580;2024-01-11T07:10:23;99379.72;;;-7.57;83.90
21760;BME280;11041;50.854;20.580;2024-01-11T07:12:49;99375.22;;;-7.57;83.99
21760;BME280;11041;50.854;20.580;2024-01-11T07:15:16;99381.38;;;-7.56;82.28
21760;BME280;11041;50.854;20.580;2024-01-11T07:17:45;99377.78;;;-7.48;82.74
21760;BME280;11041;50.854;20.580;2024-01-11T07:20:13;99399.72;;;-7.38;83.14
21760;BME280;11041;50.854;20.580;2024-01-11T07:22:41;99405.13;;;-7.32;82.30
21760;BME280;11041;50.854;20.580;2024-01-11T07:25:08;99409.75;;;-7.25;82.31
21760;BME280;11041;50.854;20.580;2024-01-11T07:27:35;99400.16;;;-7.20;81.74
21760;BME280;11041;50.854;20.580;2024-01-11T07:30:04;99410.66;;;-7.18;79.45
21760;BME280;11041;50.854;20.580;2024-01-11T07:32:33;99406.97;;;-7.17;78.69
21760;BME280;11041;50.854;20.580;2024-01-11T07:35:02;99406.81;;;-7.16;78.82
21760;BME280;11041;50.854;20.580;2024-01-11T07:37:33;99405.78;;;-7.15;78.51
21760;BME280;11041;50.854;20.580;2024-01-11T07:40:05;99393.88;;;-7.12;76.59
21760;BME280;11041;50.854;20.580;2024-01-11T07:42:43;99401.56;;;-7.09;76.84
21760;BME280;11041;50.854;20.580;2024-01-11T07:45:10;99391.31;;;-7.05;77.32
21760;BME280;11041;50.854;20.580;2024-01-11T07:47:40;99386.72;;;-7.12;74.89
21760;BME280;11041;50.854;20.580;2024-01-11T07:50:10;99386.91;;;-7.13;75.79
21760;BME280;11041;50.854;20.580;2024-01-11T07:52:38;99383.03;;;-7.11;76.30
21760;BME280;11041;50.854;20.580;2024-01-11T07:55:05;99370.78;;;-7.20;75.51
21760;BME280;11041;50.854;20.580;2024-01-11T07:57:34;99376.41;;;-7.15;76.69
21760;BME280;11041;50.854;20.580;2024-01-11T08:00:03;99391.44;;;-7.14;74.55
21760;BME280;11041;50.854;20.580;2024-01-11T08:02:32;99405.50;;;-7.20;75.09
21760;BME280;11041;50.854;20.580;2024-01-11T08:05:02;99398.63;;;-7.14;75.87
21760;BME280;11041;50.854;20.580;2024-01-11T08:07:31;99386.34;;;-7.09;75.61
21760;BME280;11041;50.854;20.580;2024-01-11T08:10:00;99379.63;;;-7.04;75.43
21760;BME280;11041;50.854;20.580;2024-01-11T08:12:28;99373.00;;;-7.09;74.90
21760;BME280;11041;50.854;20.580;2024-01-11T08:15:00;99360.63;;;-7.10;73.83
21760;BME280;11041;50.854;20.580;2024-01-11T08:17:28;99346.66;;;-7.12;74.15
21760;BME280;11041;50.854;20.580;2024-01-11T08:19:57;99362.97;;;-7.07;74.92
21760;BME280;11041;50.854;20.580;2024-01-11T08:22:24;99361.19;;;-6.99;74.26
21760;BME280;11041;50.854;20.580;2024-01-11T08:24:53;99370.69;;;-6.97;74.77
21760;BME280;11041;50.854;20.580;2024-01-11T08:27:22;99357.41;;;-6.90;74.33
21760;BME280;11041;50.854;20.580;2024-01-11T08:29:50;99364.41;;;-6.89;74.73
21760;BME280;11041;50.854;20.580;2024-01-11T08:32:19;99364.22;;;-6.88;74.03
21760;BME280;11041;50.854;20.580;2024-01-11T08:34:46;99363.28;;;-6.80;74.52
21760;BME280;11041;50.854;20.580;2024-01-11T08:37:17;99377.91;;;-6.76;74.43
21760;BME280;11041;50.854;20.580;2024-01-11T08:39:45;99380.41;;;-6.74;73.56
21760;BME280;11041;50.854;20.580;2024-01-11T08:42:16;99374.94;;;-6.66;73.63
21760;BME280;11041;50.854;20.580;2024-01-11T08:44:46;99358.72;;;-6.65;73.24
21760;BME280;11041;50.854;20.580;2024-01-11T08:47:18;99359.59;;;-6.57;73.66
21760;BME280;11041;50.854;20.580;2024-01-11T08:49:49;99370.13;;;-6.56;72.29
21760;BME280;11041;50.854;20.580;2024-01-11T08:52:22;99348.34;;;-6.53;72.69
21760;BME280;11041;50.854;20.580;2024-01-11T08:54:49;99350.19;;;-6.53;73.09
21760;BME280;11041;50.854;20.580;2024-01-11T08:57:19;99343.56;;;-6.57;73.60
21760;BME280;11041;50.854;20.580;2024-01-11T08:59:50;99341.84;;;-6.65;73.73
21760;BME280;11041;50.854;20.580;2024-01-11T09:02:21;99350.03;;;-6.67;73.76
21760;BME280;11041;50.854;20.580;2024-01-11T09:04:52;99348.28;;;-6.59;74.47
21760;BME280;11041;50.854;20.580;2024-01-11T09:07:21;99362.34;;;-6.51;73.98
21760;BME280;11041;50.854;20.580;2024-01-11T09:09:55;99359.56;;;-6.43;73.45
21760;BME280;11041;50.854;20.580;2024-01-11T09:12:28;99369.94;;;-6.33;73.77
21760;BME280;11041;50.854;20.580;2024-01-11T09:14:58;99361.00;;;-6.18;73.78
21760;BME280;11041;50.854;20.580;2024-01-11T09:17:27;99364.81;;;-6.06;73.19
21760;BME280;11041;50.854;20.580;2024-01-11T09:19:54;99353.59;;;-5.95;72.60
21760;BME280;11041;50.854;20.580;2024-01-11T09:22:27;99353.44;;;-5.87;72.43
21760;BME280;11041;50.854;20.580;2024-01-11T09:24:57;99353.44;;;-5.87;72.78
21760;BME280;11041;50.854;20.580;2024-01-11T09:27:30;99356.38;;;-5.82;71.74
21760;BME280;11041;50.854;20.580;2024-01-11T09:29:58;99360.50;;;-5.79;72.32
21760;BME280;11041;50.854;20.580;2024-01-11T09:32:27;99357.44;;;-5.76;72.19
21760;BME280;11041;50.854;20.580;2024-01-11T09:35:02;99349.59;;;-5.78;72.58
21760;BME280;11041;50.854;20.580;2024-01-11T09:37:32;99350.63;;;-5.79;71.81
21760;BME280;11041;50.854;20.580;2024-01-11T09:40:09;99343.56;;;-5.86;72.38
21760;BME280;11041;50.854;20.580;2024-01-11T09:42:42;99340.31;;;-5.82;72.59
21760;BME280;11041;50.854;20.580;2024-01-11T09:45:16;99328.97;;;-5.84;73.17
21760;BME280;11041;50.854;20.580;2024-01-11T09:47:50;99332.66;;;-5.85;73.85
21760;BME280;11041;50.854;20.580;2024-01-11T09:50:23;99330.38;;;-5.88;74.13
21760;BME280;11041;50.854;20.580;2024-01-11T09:52:53;99335.59;;;-5.80;74.23
21760;BME280;11041;50.854;20.580;2024-01-11T09:55:25;99343.56;;;-5.86;74.55
21760;BME280;11041;50.854;20.580;2024-01-11T09:57:59;99328.56;;;-5.81;75.01
21760;BME280;11041;50.854;20.580;2024-01-11T10:00:34;99344.69;;;-5.74;75.30
21760;BME280;11041;50.854;20.580;2024-01-11T10:03:01;99326.59;;;-5.72;74.97
21760;BME280;11041;50.854;20.580;2024-01-11T10:05:29;99318.34;;;-5.70;75.45
21760;BME280;11041;50.854;20.580;2024-01-11T10:08:01;99318.56;;;-5.72;75.98
21760;BME280;11041;50.854;20.580;2024-01-11T10:10:30;99310.13;;;-5.69;76.38
21760;BME280;11041;50.854;20.580;2024-01-11T10:13:03;99303.72;;;-5.68;76.52
21760;BME280;11041;50.854;20.580;2024-01-11T10:15:36;99308.25;;;-5.68;76.24
21760;BME280;11041;50.854;20.580;2024-01-11T10:18:06;99307.44;;;-5.69;77.08
21760;BME280;11041;50.854;20.580;2024-01-11T10:20:34;99320.06;;;-5.63;77.46
21760;BME280;11041;50.854;20.580;2024-01-11T10:23:02;99328.75;;;-5.54;77.23
21760;BME280;11041;50.854;20.580;2024-01-11T10:25:29;99317.63;;;-5.51;77.61
21760;BME280;11041;50.854;20.580;2024-01-11T10:27:55;99318.09;;;-5.47;77.40
21760;BME280;11041;50.854;20.580;2024-01-11T10:30:24;99317.50;;;-5.43;77.54
21760;BME280;11041;50.854;20.580;2024-01-11T10:32:57;99331.69;;;-5.42;77.59
21760;BME280;11041;50.854;20.580;2024-01-11T10:35:25;99313.53;;;-5.47;77.30
21760;BME280;11041;50.854;20.580;2024-01-11T10:37:53;99321.16;;;-5.50;77.79
21760;BME280;11041;50.854;20.580;2024-01-11T10:40:21;99317.63;;;-5.51;77.93
21760;BME280;11041;50.854;20.580;2024-01-11T10:42:52;99321.94;;;-5.57;78.38
21760;BME280;11041;50.854;20.580;2024-01-11T10:45:20;99319.88;;;-5.54;78.93
21760;BME280;11041;50.854;20.580;2024-01-11T10:47:54;99305.44;;;-5.60;78.42
21760;BME280;11041;50.854;20.580;2024-01-11T10:50:25;99300.28;;;-5.62;78.47
21760;BME280;11041;50.854;20.580;2024-01-11T10:53:04;99286.91;;;-5.62;78.61
21760;BME280;11041;50.854;20.580;2024-01-11T10:55:38;99280.94;;;-5.57;79.11
21760;BME280;11041;50.854;20.580;2024-01-11T10:58:07;99292.53;;;-5.50;79.09
21760;BME280;11041;50.854;20.580;2024-01-11T11:00:37;99281.59;;;-5.48;79.40
21760;BME280;11041;50.854;20.580;2024-01-11T11:03:05;99275.28;;;-5.41;79.44
21760;BME280;11041;50.854;20.580;2024-01-11T11:05:35;99277.53;;;-5.38;78.66
21760;BME280;11041;50.854;20.580;2024-01-11T11:08:02;99250.34;;;-5.35;79.51
21760;BME280;11041;50.854;20.580;2024-01-11T11:10:33;99253.66;;;-5.32;79.53
21760;BME280;11041;50.854;20.580;2024-01-11T11:13:00;99239.03;;;-5.30;79.64
21760;BME280;11041;50.854;20.580;2024-01-11T11:15:28;99241.75;;;-5.23;79.17
21760;BME280;11041;50.854;20.580;2024-01-11T11:17:55;99226.94;;;-5.19;80.04
21760;BME280;11041;50.854;20.580;2024-01-11T11:20:22;99250.81;;;-5.18;79.65
21760;BME280;11041;50.854;20.580;2024-01-11T11:23:11;99254.56;;;-5.12;79.59
21760;BME280;11041;50.854;20.580;2024-01-11T11:25:41;99258.91;;;-5.11;79.63
21760;BME280;11041;50.854;20.580;2024-01-11T11:28:11;99254.16;;;-5.09;80.23
21760;BME280;11041;50.854;20.580;2024-01-11T11:30:40;99259.97;;;-4.99;80.24
21760;BME280;11041;50.854;20.580;2024-01-11T11:33:17;99239.16;;;-4.97;80.17
21760;BME280;11041;50.854;20.580;2024-01-11T11:35:46;99250.69;;;-4.96;80.19
21760;BME280;11041;50.854;20.580;2024-01-11T11:38:26;99250.50;;;-4.95;80.22
21760;BME280;11041;50.854;20.580;2024-01-11T11:40:55;99255.84;;;-4.95;79.38
21760;BME280;11041;50.854;20.580;2024-01-11T11:43:28;99263.69;;;-5.00;80.31
21760;BME280;11041;50.854;20.580;2024-01-11T11:45:56;99256.44;;;-5.06;80.10
21760;BME280;11041;50.854;20.580;2024-01-11T11:51:15;99242.63;;;-5.09;81.10
21760;BME280;11041;50.854;20.580;2024-01-11T11:53:42;99229.41;;;-5.11;81.24
21760;BME280;11041;50.854;20.580;2024-01-11T11:56:10;99215.00;;;-5.03;81.09
21760;BME280;11041;50.854;20.580;2024-01-11T11:58:38;99217.50;;;-4.95;81.23
21760;BME280;11041;50.854;20.580;2024-01-11T12:01:06;99213.00;;;-4.88;81.50
21760;BME280;11041;50.854;20.580;2024-01-11T12:03:40;99198.34;;;-4.79;81.16
21760;BME280;11041;50.854;20.580;2024-01-11T12:06:12;99199.16;;;-4.85;80.89
21760;BME280;11041;50.854;20.580;2024-01-11T12:08:46;99176.28;;;-4.87;81.26
21760;BME280;11041;50.854;20.580;2024-01-11T12:11:25;99171.94;;;-4.88;81.53
21760;BME280;11041;50.854;20.580;2024-01-11T12:13:53;99193.59;;;-4.97;82.25
21760;BME280;11041;50.854;20.580;2024-01-11T12:16:23;99178.75;;;-4.93;81.96
21760;BME280;11041;50.854;20.580;2024-01-11T12:18:50;99184.94;;;-4.85;82.00
21760;BME280;11041;50.854;20.580;2024-01-11T12:21:19;99187.59;;;-4.99;83.34
21760;BME280;11041;50.854;20.580;2024-01-11T12:23:46;99185.34;;;-5.02;83.75
21760;BME280;11041;50.854;20.580;2024-01-11T12:26:13;99179.97;;;-5.02;85.00
21760;BME280;11041;50.854;20.580;2024-01-11T12:28:41;99181.00;;;-5.03;86.71
21760;BME280;11041;50.854;20.580;2024-01-11T12:31:11;99179.13;;;-5.09;88.56
21760;BME280;11041;50.854;20.580;2024-01-11T12:33:40;99170.06;;;-5.08;90.05
21760;BME280;11041;50.854;20.580;2024-01-11T12:36:08;99170.91;;;-5.07;90.45
21760;BME280;11041;50.854;20.580;2024-01-11T12:38:37;99167.16;;;-5.13;91.37
21760;BME280;11041;50.854;20.580;2024-01-11T12:41:06;99167.78;;;-5.11;91.67
21760;BME280;11041;50.854;20.580;2024-01-11T12:43:38;99166.34;;;-5.14;92.02
21760;BME280;11041;50.854;20.580;2024-01-11T12:46:06;99164.06;;;-5.10;92.93
21760;BME280;11041;50.854;20.580;2024-01-11T12:48:33;99164.69;;;-5.08;93.28
21760;BME280;11041;50.854;20.580;2024-01-11T12:51:01;99163.06;;;-5.09;93.39
21760;BME280;11041;50.854;20.580;2024-01-11T12:53:30;99165.91;;;-5.17;94.24
21760;BME280;11041;50.854;20.580;2024-01-11T12:56:07;99161.38;;;-5.23;95.70
21760;BME280;11041;50.854;20.580;2024-01-11T12:58:37;99162.59;;;-5.32;96.69